Airfield :
LOGIN :

Register | Disclaimer

   EN    FR    IT 

 










Legend :    VFR   Marginal VFR   IFR   Intensive IFR   Very Intensive IFR
Visi :
Ceiling :
>= 8 km
>= 3000ft
5 to 8 km
1000 to 3000 ft
1500m to 5 km
500 to 1000 ft
800 to 1500m
200 to 500 ft
< 800m
< 200 ft
Symbols :   Thunderstorms  Fog  Heavy snow  Heavy precipitations  Wind > 20 kt
SIGMETs :     Misc.  Thunderstorms  Icing  Turbulence  Mountain Waves  Volcanic Ashes






- Airport Elevation : 1674 ft
- IATA code : BRN


LSZB - Bern Belp

CURRENT METAR :
  • 280150Z AUTO VRB01KT 1400 R14/1300U -SN VV009 01/01 Q1015 REDZ

EXPIRED METARs :
  • 280120Z AUTO VRB01KT 2200 R14/1200U DZ BKN003 01/01 Q1016 RESN
  • 280050Z AUTO VRB01KT 1600 R14/1200U -SN SCT003 SCT005 BKN020 01/01 Q1016
  • 280020Z AUTO VRB02KT 2800 BR OVC004 01/01 Q1016
  • 272350Z AUTO 09005KT 3300 BR SCT004 BKN006 OVC025 01/01 Q1016

Expired Forecast.
ATIS : +41 22 417 40 76



MET'MAP, your aeronautical weather chart ! - Copyright ORBIFLY December 2007 - Disclaimer

ORBIFLY MET'MAP TEAM :

Programming & Development : Alexandra Zaïnal
Concept & original design : Baudouin d'Aumeries
Assistance for programming : Marc-Olivier Méhu
Technical & hardware support : Manuel Goepfert

Contact : metmap@orbifly.com




SOURCES & CREDITS :

   NOAA